createdAt,value
2016-12-12T00:00:22.997Z,1028.97
2016-12-12T00:01:22.988Z,1028.93
2016-12-12T00:02:22.978Z,1028.96
2016-12-12T00:03:22.968Z,1028.93
2016-12-12T00:04:22.960Z,1028.94
2016-12-12T00:05:22.950Z,1028.95
2016-12-12T00:06:22.939Z,1028.98
2016-12-12T00:07:22.932Z,1028.94
2016-12-12T00:08:22.919Z,1028.92
2016-12-12T00:09:22.909Z,1028.94
2016-12-12T00:10:22.901Z,1028.91
2016-12-12T00:11:22.891Z,1028.89
2016-12-12T00:12:22.881Z,1028.91
2016-12-12T00:13:22.872Z,1028.96
2016-12-12T00:14:22.863Z,1028.96
2016-12-12T00:15:22.850Z,1028.92
2016-12-12T00:16:22.843Z,1028.93
2016-12-12T00:17:22.833Z,1028.94
2016-12-12T00:18:22.822Z,1028.87
2016-12-12T00:19:22.815Z,1028.9
2016-12-12T00:20:22.805Z,1028.9
2016-12-12T00:21:22.794Z,1028.91
2016-12-12T00:22:22.782Z,1028.96
2016-12-12T00:23:22.773Z,1028.97
2016-12-12T00:24:22.765Z,1028.99
2016-12-12T00:25:22.754Z,1028.98
2016-12-12T00:26:22.743Z,1028.94
2016-12-12T00:27:22.734Z,1028.91
2016-12-12T00:28:22.726Z,1028.94
2016-12-12T00:29:22.716Z,1028.93
2016-12-12T00:30:22.707Z,1028.94
2016-12-12T00:31:22.696Z,1028.98
2016-12-12T00:32:22.685Z,1028.97
2016-12-12T00:33:22.674Z,1028.92
2016-12-12T00:34:22.665Z,1028.95
2016-12-12T00:35:22.655Z,1028.93
2016-12-12T00:36:22.648Z,1028.89
2016-12-12T00:37:22.635Z,1028.94
2016-12-12T00:38:22.628Z,1028.91
2016-12-12T00:39:22.616Z,1028.92
2016-12-12T00:40:22.605Z,1028.91
2016-12-12T00:41:22.597Z,1028.94
2016-12-12T00:42:22.587Z,1028.96
2016-12-12T00:43:22.576Z,1028.92
2016-12-12T00:44:22.566Z,1028.85
2016-12-12T00:45:22.556Z,1028.85
2016-12-12T00:46:22.547Z,1028.83
2016-12-12T00:47:22.539Z,1028.83
2016-12-12T00:48:22.528Z,1028.76
2016-12-12T00:49:22.517Z,1028.75
2016-12-12T00:50:22.857Z,1028.71
2016-12-12T00:51:22.498Z,1028.72
2016-12-12T00:52:22.488Z,1028.74
2016-12-12T00:53:22.477Z,1028.72
2016-12-12T00:54:22.467Z,1028.75
2016-12-12T00:55:22.459Z,1028.71
2016-12-12T00:56:22.449Z,1028.75
2016-12-12T00:57:22.440Z,1028.71
2016-12-12T00:58:22.436Z,1028.68
2016-12-12T00:59:22.417Z,1028.72
2016-12-12T01:00:22.408Z,1028.67
2016-12-12T01:01:22.399Z,1028.69
2016-12-12T01:02:22.387Z,1028.72
2016-12-12T01:03:22.380Z,1028.64
2016-12-12T01:04:22.368Z,1028.64
2016-12-12T01:05:22.359Z,1028.59
2016-12-12T01:06:22.349Z,1028.7
2016-12-12T01:07:22.339Z,1028.66
2016-12-12T01:08:22.331Z,1028.72
2016-12-12T01:09:22.322Z,1028.74
2016-12-12T01:10:22.311Z,1028.73
2016-12-12T01:11:22.301Z,1028.76
2016-12-12T01:12:22.290Z,1028.74
2016-12-12T01:13:22.281Z,1028.79
2016-12-12T01:14:22.272Z,1028.77
2016-12-12T01:15:22.260Z,1028.75
2016-12-12T01:16:22.251Z,1028.83
2016-12-12T01:17:22.240Z,1028.81
2016-12-12T01:18:22.232Z,1028.83
2016-12-12T01:19:22.221Z,1028.84
2016-12-12T01:20:22.213Z,1028.83
2016-12-12T01:21:22.201Z,1028.85
2016-12-12T01:22:22.193Z,1028.91
2016-12-12T01:23:22.181Z,1028.87
2016-12-12T01:24:22.171Z,1028.86
2016-12-12T01:25:22.161Z,1028.81
2016-12-12T01:26:22.151Z,1028.83
2016-12-12T01:27:22.144Z,1028.77
2016-12-12T01:28:22.131Z,1028.76
2016-12-12T01:29:22.124Z,1028.76
2016-12-12T01:30:22.115Z,1028.77
2016-12-12T01:31:22.103Z,1028.79
2016-12-12T01:32:22.094Z,1028.73
2016-12-12T01:33:22.084Z,1028.64
2016-12-12T01:34:22.073Z,1028.81
2016-12-12T01:35:22.063Z,1028.76
2016-12-12T01:36:22.054Z,1028.75
2016-12-12T01:37:22.044Z,1028.73
2016-12-12T01:38:22.034Z,1028.75
2016-12-12T01:39:22.024Z,1028.7
2016-12-12T01:40:22.012Z,1028.68
2016-12-12T01:41:22.004Z,1028.65
2016-12-12T01:42:21.992Z,1028.62
2016-12-12T01:43:21.982Z,1028.72
2016-12-12T01:44:21.974Z,1028.7
2016-12-12T01:45:21.964Z,1028.68
2016-12-12T01:46:21.953Z,1028.73
2016-12-12T01:47:21.942Z,1028.73
2016-12-12T01:48:21.932Z,1028.79
2016-12-12T01:49:21.922Z,1028.78
2016-12-12T01:50:21.912Z,1028.79
2016-12-12T01:51:21.904Z,1028.75
2016-12-12T01:52:21.894Z,1028.76
2016-12-12T01:53:21.886Z,1028.77
2016-12-12T01:54:21.873Z,1028.75
2016-12-12T01:55:21.863Z,1028.75
2016-12-12T01:56:21.856Z,1028.79
2016-12-12T01:57:21.845Z,1028.78
2016-12-12T01:58:21.833Z,1028.78
2016-12-12T01:59:21.824Z,1028.8
2016-12-12T02:00:21.813Z,1028.78
2016-12-12T02:01:21.807Z,1028.77
2016-12-12T02:02:21.793Z,1028.77
2016-12-12T02:03:21.784Z,1028.83
2016-12-12T02:04:21.779Z,1028.75
2016-12-12T02:05:21.763Z,1028.75
2016-12-12T02:06:21.754Z,1028.76
2016-12-12T02:07:21.744Z,1028.79
2016-12-12T02:08:21.733Z,1028.81
2016-12-12T02:09:21.725Z,1028.8
2016-12-12T02:10:21.718Z,1028.79
2016-12-12T02:11:21.704Z,1028.72
2016-12-12T02:12:21.695Z,1028.78
2016-12-12T02:13:21.684Z,1028.81
2016-12-12T02:14:21.677Z,1028.77
2016-12-12T02:15:21.666Z,1028.77
2016-12-12T02:16:21.657Z,1028.77
2016-12-12T02:17:21.647Z,1028.77
2016-12-12T02:18:21.637Z,1028.72
2016-12-12T02:19:21.624Z,1028.77
2016-12-12T02:20:21.617Z,1028.81
2016-12-12T02:21:21.607Z,1028.8
2016-12-12T02:22:21.596Z,1028.83
2016-12-12T02:23:21.586Z,1029.01
2016-12-12T02:24:21.577Z,1029.31
2016-12-12T02:25:21.566Z,1029.4
2016-12-12T02:26:21.557Z,1029.78
2016-12-12T02:27:21.548Z,1029.63
2016-12-12T02:28:21.538Z,1029.79
2016-12-12T02:29:21.529Z,1029.8
2016-12-12T02:30:21.519Z,1029.9
2016-12-12T02:31:21.508Z,1029.95
2016-12-12T02:32:21.498Z,1030.02
2016-12-12T02:33:21.487Z,1030.08
2016-12-12T02:34:21.476Z,1030.14
2016-12-12T02:35:21.466Z,1030.12
2016-12-12T02:36:21.458Z,1030.17
2016-12-12T02:37:21.445Z,1030.19
2016-12-12T02:38:21.437Z,1030.18
2016-12-12T02:39:21.425Z,1030.18
2016-12-12T02:40:21.417Z,1030.19
2016-12-12T02:41:21.404Z,1030.21
2016-12-12T02:42:21.394Z,1030.25
2016-12-12T02:43:21.384Z,1030.24
2016-12-12T02:44:21.376Z,1030.24
2016-12-12T02:45:21.363Z,1030.24
2016-12-12T02:46:21.355Z,1030.34
2016-12-12T02:47:21.342Z,1030.32
2016-12-12T02:48:21.334Z,1030.33
2016-12-12T02:49:21.320Z,1030.32
2016-12-12T02:50:21.313Z,1030.4
2016-12-12T02:51:21.302Z,1030.33
2016-12-12T02:52:21.289Z,1030.41
2016-12-12T02:53:21.279Z,1030.49
2016-12-12T02:54:21.268Z,1030.53
2016-12-12T02:55:21.258Z,1030.59
2016-12-12T02:56:21.249Z,1030.67
2016-12-12T02:57:21.237Z,1030.72
2016-12-12T02:58:21.226Z,1030.77
2016-12-12T02:59:21.217Z,1030.85
2016-12-12T03:00:21.204Z,1030.91
2016-12-12T03:01:21.194Z,1030.99
2016-12-12T03:02:21.185Z,1031.04
2016-12-12T03:03:21.174Z,1031.05
2016-12-12T03:04:21.164Z,1031.02
2016-12-12T03:05:21.153Z,1031.1
2016-12-12T03:06:21.143Z,1031.1
2016-12-12T03:07:21.131Z,1031.22
2016-12-12T03:08:21.119Z,1031.22
2016-12-12T03:09:21.111Z,1031.24
2016-12-12T03:10:21.097Z,1031.29
2016-12-12T03:11:21.089Z,1031.28
2016-12-12T03:12:21.076Z,1031.32
2016-12-12T03:13:21.067Z,1031.38
2016-12-12T03:14:21.055Z,1031.38
2016-12-12T03:15:21.043Z,1031.36
2016-12-12T03:16:21.034Z,1031.47
2016-12-12T03:17:21.025Z,1031.51
2016-12-12T03:18:21.011Z,1031.52
2016-12-12T03:19:20.999Z,1031.55
2016-12-12T03:20:20.988Z,1031.56
2016-12-12T03:21:20.978Z,1031.56
2016-12-12T03:22:20.968Z,1031.58
2016-12-12T03:23:20.955Z,1031.58
2016-12-12T03:24:20.946Z,1031.55
2016-12-12T03:25:20.933Z,1031.54
2016-12-12T03:26:20.924Z,1031.52
2016-12-12T03:27:20.913Z,1031.55
2016-12-12T03:28:20.902Z,1031.55
2016-12-12T03:29:20.890Z,1031.56
2016-12-12T03:30:20.879Z,1031.56
2016-12-12T03:31:20.870Z,1031.58
2016-12-12T03:32:20.858Z,1031.59
2016-12-12T03:33:20.845Z,1031.63
2016-12-12T03:34:20.834Z,1031.58
2016-12-12T03:35:20.824Z,1031.6
2016-12-12T03:36:20.811Z,1031.63
2016-12-12T03:37:20.802Z,1031.63
2016-12-12T03:38:20.789Z,1031.63
2016-12-12T03:39:20.779Z,1031.62
2016-12-12T03:40:20.769Z,1031.62
2016-12-12T03:41:20.757Z,1031.61
2016-12-12T03:42:20.745Z,1031.61
2016-12-12T03:43:20.734Z,1031.57
2016-12-12T03:44:20.722Z,1031.58
2016-12-12T03:45:20.711Z,1031.61
2016-12-12T03:46:20.702Z,1031.57
2016-12-12T03:47:20.691Z,1031.51
2016-12-12T03:48:20.678Z,1031.54
2016-12-12T03:49:20.668Z,1031.48
2016-12-12T03:50:20.658Z,1031.48
2016-12-12T03:51:20.645Z,1031.52
2016-12-12T03:52:20.635Z,1031.58
2016-12-12T03:53:20.625Z,1031.55
2016-12-12T03:54:20.612Z,1031.57
2016-12-12T03:55:20.603Z,1031.56
2016-12-12T03:56:20.593Z,1031.56
2016-12-12T03:57:20.579Z,1031.51
2016-12-12T03:58:20.570Z,1031.55
2016-12-12T03:59:20.558Z,1031.59
2016-12-12T04:00:20.550Z,1031.62
2016-12-12T04:01:20.535Z,1031.63
2016-12-12T04:02:20.525Z,1031.66
2016-12-12T04:03:20.513Z,1031.68
2016-12-12T04:04:20.503Z,1031.68
2016-12-12T04:05:20.493Z,1031.75
2016-12-12T04:06:20.482Z,1031.77
2016-12-12T04:07:20.470Z,1031.81
2016-12-12T04:08:20.459Z,1031.81
2016-12-12T04:09:20.447Z,1031.85
2016-12-12T04:10:20.437Z,1031.83
2016-12-12T04:11:20.426Z,1031.88
2016-12-12T04:12:20.416Z,1031.85
2016-12-12T04:13:20.406Z,1031.87
2016-12-12T04:14:20.394Z,1031.87
2016-12-12T04:15:20.385Z,1031.88
2016-12-12T04:16:20.373Z,1031.85
2016-12-12T04:17:20.363Z,1031.87
2016-12-12T04:18:20.350Z,1031.88
2016-12-12T04:19:20.339Z,1031.86
2016-12-12T04:20:20.328Z,1031.9
2016-12-12T04:21:20.318Z,1031.86
2016-12-12T04:22:20.307Z,1031.78
2016-12-12T04:23:20.296Z,1031.75
2016-12-12T04:24:20.284Z,1031.8
2016-12-12T04:25:20.274Z,1031.75
2016-12-12T04:26:20.263Z,1031.73
2016-12-12T04:27:20.252Z,1031.71
2016-12-12T04:28:20.242Z,1031.74
2016-12-12T04:29:20.230Z,1031.71
2016-12-12T04:30:20.222Z,1031.75
2016-12-12T04:31:20.210Z,1031.75
2016-12-12T04:32:20.200Z,1031.81
2016-12-12T04:33:20.189Z,1031.83
2016-12-12T04:34:20.177Z,1031.85
2016-12-12T04:35:20.166Z,1031.81
2016-12-12T04:36:20.156Z,1031.83
2016-12-12T04:37:20.146Z,1031.82
2016-12-12T04:38:20.132Z,1031.82
2016-12-12T04:39:20.123Z,1031.86
2016-12-12T04:40:20.111Z,1031.89
2016-12-12T04:41:20.102Z,1031.92
2016-12-12T04:42:20.090Z,1031.89
2016-12-12T04:43:20.080Z,1031.94
2016-12-12T04:44:20.070Z,1031.98
2016-12-12T04:45:20.056Z,1031.9
2016-12-12T04:46:20.048Z,1031.95
2016-12-12T04:47:20.036Z,1031.9
2016-12-12T04:48:20.027Z,1031.85
2016-12-12T04:49:20.015Z,1031.82
2016-12-12T04:50:20.003Z,1031.89
2016-12-12T04:51:19.992Z,1031.84
2016-12-12T04:52:19.982Z,1031.85
2016-12-12T04:53:19.971Z,1031.83
2016-12-12T04:54:19.959Z,1031.87
2016-12-12T04:55:19.949Z,1031.91
2016-12-12T04:56:19.940Z,1031.96
2016-12-12T04:57:19.926Z,1031.94
2016-12-12T04:58:19.919Z,1031.96
2016-12-12T04:59:19.907Z,1031.98
2016-12-12T05:00:19.896Z,1031.98
2016-12-12T05:01:19.884Z,1031.98
2016-12-12T05:02:19.875Z,1031.98
2016-12-12T05:03:19.864Z,1031.99
2016-12-12T05:04:19.853Z,1032.03
2016-12-12T05:05:19.842Z,1032.03
2016-12-12T05:06:19.834Z,1032.06
2016-12-12T05:07:19.820Z,1032.02
2016-12-12T05:08:19.812Z,1032.03
2016-12-12T05:09:19.801Z,1032.06
2016-12-12T05:10:19.791Z,1032.08
2016-12-12T05:11:19.780Z,1032.05
2016-12-12T05:12:19.770Z,1032.02
2016-12-12T05:13:19.758Z,1031.97
2016-12-12T05:14:19.747Z,1031.96
2016-12-12T05:15:19.736Z,1031.88
2016-12-12T05:16:19.726Z,1031.89
2016-12-12T05:17:19.718Z,1031.87
2016-12-12T05:18:19.707Z,1031.85
2016-12-12T05:19:19.697Z,1031.95
2016-12-12T05:20:19.685Z,1031.95
2016-12-12T05:21:19.676Z,1032.05
2016-12-12T05:22:19.666Z,1032.08
2016-12-12T05:23:19.653Z,1032.06
2016-12-12T05:24:19.643Z,1032.08
2016-12-12T05:25:19.633Z,1032.07
2016-12-12T05:26:19.622Z,1032.09
2016-12-12T05:27:19.614Z,1032.07
2016-12-12T05:28:19.602Z,1032.06
2016-12-12T05:29:19.591Z,1032.06
2016-12-12T05:30:19.585Z,1032.06
2016-12-12T05:31:19.571Z,1032.04
2016-12-12T05:32:19.563Z,1032.1
2016-12-12T05:33:19.552Z,1032.12
2016-12-12T05:34:19.540Z,1032.12
2016-12-12T05:35:19.531Z,1032.11
2016-12-12T05:36:19.520Z,1032.1
2016-12-12T05:37:19.511Z,1032.13
2016-12-12T05:38:19.499Z,1032.18
2016-12-12T05:39:19.491Z,1032.15
2016-12-12T05:40:19.480Z,1032.16
2016-12-12T05:41:19.473Z,1032.16
2016-12-12T05:42:19.458Z,1032.16
2016-12-12T05:43:19.451Z,1032.22
2016-12-12T05:44:19.437Z,1032.21
2016-12-12T05:45:19.429Z,1032.19
2016-12-12T05:46:19.420Z,1032.22
2016-12-12T05:47:19.409Z,1032.21
2016-12-12T05:48:19.399Z,1032.24
2016-12-12T05:49:19.389Z,1032.25
2016-12-12T05:50:19.377Z,1032.25
2016-12-12T05:51:19.366Z,1032.31
2016-12-12T05:52:19.356Z,1032.36
2016-12-12T05:53:19.348Z,1032.34
2016-12-12T05:54:19.338Z,1032.33
2016-12-12T05:55:19.328Z,1032.38
2016-12-12T05:56:19.319Z,1032.4
2016-12-12T05:57:19.307Z,1032.45
2016-12-12T05:58:19.296Z,1032.44
2016-12-12T05:59:19.288Z,1032.47
2016-12-12T06:00:19.276Z,1032.52
2016-12-12T06:01:19.270Z,1032.56
2016-12-12T06:02:19.258Z,1032.59
2016-12-12T06:03:19.246Z,1032.63
2016-12-12T06:04:19.236Z,1032.67
2016-12-12T06:05:19.228Z,1032.7
2016-12-12T06:06:19.215Z,1032.73
2016-12-12T06:07:19.205Z,1032.8
2016-12-12T06:08:19.196Z,1032.83
2016-12-12T06:09:19.185Z,1032.85
2016-12-12T06:10:19.177Z,1032.84
2016-12-12T06:11:19.167Z,1032.86
2016-12-12T06:12:19.157Z,1032.91
2016-12-12T06:13:19.146Z,1032.91
2016-12-12T06:14:19.134Z,1032.9
2016-12-12T06:15:19.125Z,1032.95
2016-12-12T06:16:19.118Z,1032.97
2016-12-12T06:17:19.106Z,1032.98
2016-12-12T06:18:19.094Z,1033.03
2016-12-12T06:19:19.088Z,1033.03
2016-12-12T06:20:19.074Z,1033.07
2016-12-12T06:21:19.066Z,1033.1
2016-12-12T06:22:19.056Z,1033.13
2016-12-12T06:23:19.047Z,1033.16
2016-12-12T06:24:19.034Z,1033.2
2016-12-12T06:25:19.024Z,1033.24
2016-12-12T06:26:19.016Z,1033.31
2016-12-12T06:27:19.007Z,1033.38
2016-12-12T06:28:18.994Z,1033.47
2016-12-12T06:29:18.986Z,1033.47
2016-12-12T06:30:18.976Z,1033.49
2016-12-12T06:31:18.963Z,1033.57
2016-12-12T06:32:18.953Z,1033.6
2016-12-12T06:33:18.945Z,1033.65
2016-12-12T06:34:18.934Z,1033.68
2016-12-12T06:35:18.925Z,1033.72
2016-12-12T06:36:18.914Z,1033.76
2016-12-12T06:37:18.903Z,1033.76
2016-12-12T06:38:18.895Z,1033.75
2016-12-12T06:39:18.883Z,1033.79
2016-12-12T06:40:18.875Z,1033.8
2016-12-12T06:41:18.866Z,1033.87
2016-12-12T06:42:18.853Z,1033.88
2016-12-12T06:43:18.843Z,1033.98
2016-12-12T06:44:18.833Z,1033.99
2016-12-12T06:45:18.825Z,1034.12
2016-12-12T06:46:18.813Z,1034.16
2016-12-12T06:47:18.802Z,1034.12
2016-12-12T06:48:18.792Z,1034.16
2016-12-12T06:49:18.781Z,1034.22
2016-12-12T06:50:18.794Z,1034.25
2016-12-12T06:51:18.762Z,1034.34
2016-12-12T06:52:18.751Z,1034.46
2016-12-12T06:53:18.741Z,1034.43
2016-12-12T06:54:18.730Z,1034.54
2016-12-12T06:55:18.722Z,1034.59
2016-12-12T06:56:18.710Z,1034.66
2016-12-12T06:57:18.700Z,1034.72
2016-12-12T06:58:18.689Z,1034.75
2016-12-12T06:59:18.679Z,1034.74
2016-12-12T07:00:18.670Z,1034.77
2016-12-12T07:01:18.659Z,1034.78
2016-12-12T07:02:18.649Z,1034.78
2016-12-12T07:03:18.637Z,1034.84
2016-12-12T07:04:18.626Z,1034.76
2016-12-12T07:05:18.618Z,1034.73
2016-12-12T07:06:18.607Z,1034.73
2016-12-12T07:07:18.597Z,1034.82
2016-12-12T07:08:18.586Z,1034.85
2016-12-12T07:09:18.574Z,1034.9
2016-12-12T07:10:18.564Z,1034.97
2016-12-12T07:11:18.552Z,1034.98
2016-12-12T07:12:18.544Z,1035.04
2016-12-12T07:13:18.532Z,1035.05
2016-12-12T07:14:18.524Z,1035.04
2016-12-12T07:15:18.511Z,1035.05
2016-12-12T07:16:18.502Z,1035.07
2016-12-12T07:17:18.492Z,1035.07
2016-12-12T07:18:18.480Z,1035.13
2016-12-12T07:19:18.468Z,1035.14
2016-12-12T07:20:18.460Z,1035.14
2016-12-12T07:21:18.448Z,1035.11
2016-12-12T07:22:18.438Z,1035.18
2016-12-12T07:23:18.428Z,1035.21
2016-12-12T07:24:18.419Z,1035.27
2016-12-12T07:25:18.405Z,1035.26
2016-12-12T07:26:18.394Z,1035.24
2016-12-12T07:27:18.384Z,1035.31
2016-12-12T07:28:18.374Z,1035.33
2016-12-12T07:29:18.365Z,1035.35
2016-12-12T07:30:18.352Z,1035.27
2016-12-12T07:31:18.342Z,1035.35
2016-12-12T07:32:18.337Z,1035.38
2016-12-12T07:33:18.324Z,1035.42
2016-12-12T07:34:18.311Z,1035.4
2016-12-12T07:35:18.299Z,1035.46
2016-12-12T07:36:18.289Z,1035.43
2016-12-12T07:37:18.279Z,1035.44
2016-12-12T07:38:18.269Z,1035.44
2016-12-12T07:39:18.259Z,1035.46
2016-12-12T07:40:18.248Z,1035.41
2016-12-12T07:41:18.236Z,1035.44
2016-12-12T07:42:18.228Z,1035.43
2016-12-12T07:43:18.217Z,1035.4
2016-12-12T07:44:18.204Z,1035.44
2016-12-12T07:45:18.196Z,1035.44
2016-12-12T07:46:18.186Z,1035.49
2016-12-12T07:47:18.173Z,1035.5
2016-12-12T07:48:18.162Z,1035.5
2016-12-12T07:49:18.153Z,1035.61
2016-12-12T07:50:18.142Z,1035.61
2016-12-12T07:51:18.134Z,1035.64
2016-12-12T07:52:18.120Z,1035.65
2016-12-12T07:53:18.112Z,1035.65
2016-12-12T07:54:18.107Z,1035.66
2016-12-12T07:55:18.090Z,1035.63
2016-12-12T07:56:18.081Z,1035.67
2016-12-12T07:57:18.071Z,1035.68
2016-12-12T07:58:18.060Z,1035.7
2016-12-12T07:59:18.047Z,1035.71
2016-12-12T08:00:18.039Z,1035.71
2016-12-12T08:01:18.029Z,1035.73
2016-12-12T08:02:18.019Z,1035.68
2016-12-12T08:03:18.008Z,1035.68
2016-12-12T08:04:17.996Z,1035.71
2016-12-12T08:05:17.987Z,1035.73
2016-12-12T08:06:17.977Z,1035.69
2016-12-12T08:07:17.965Z,1035.66
2016-12-12T08:08:17.956Z,1035.71
2016-12-12T08:09:17.947Z,1035.72
2016-12-12T08:10:17.937Z,1035.7
2016-12-12T08:11:17.926Z,1035.7
2016-12-12T08:12:17.914Z,1035.68
2016-12-12T08:13:17.905Z,1035.7
2016-12-12T08:14:17.894Z,1035.73
2016-12-12T08:15:17.884Z,1035.77
2016-12-12T08:16:17.876Z,1035.74
2016-12-12T08:17:17.865Z,1035.77
2016-12-12T08:18:17.853Z,1035.79
2016-12-12T08:19:17.846Z,1035.78
2016-12-12T08:20:17.833Z,1035.96
2016-12-12T08:21:17.823Z,1035.94
2016-12-12T08:22:17.815Z,1036
2016-12-12T08:23:17.805Z,1036.07
2016-12-12T08:24:17.792Z,1036.09
2016-12-12T08:25:17.784Z,1036.15
2016-12-12T08:26:17.773Z,1036.28
2016-12-12T08:27:17.762Z,1036.41
2016-12-12T08:28:17.751Z,1036.5
2016-12-12T08:29:17.741Z,1036.52
2016-12-12T08:30:17.732Z,1036.63
2016-12-12T08:31:17.724Z,1036.68
2016-12-12T08:32:17.710Z,1036.78
2016-12-12T08:33:17.702Z,1036.85
2016-12-12T08:34:17.690Z,1037.01
2016-12-12T08:35:17.681Z,1037.01
2016-12-12T08:36:17.671Z,1037.05
2016-12-12T08:37:17.660Z,1037.1
2016-12-12T08:38:17.648Z,1037.18
2016-12-12T08:39:17.637Z,1037.19
2016-12-12T08:40:17.627Z,1037.24
2016-12-12T08:41:17.620Z,1037.47
2016-12-12T08:42:17.607Z,1037.35
2016-12-12T08:43:17.598Z,1037.49
2016-12-12T08:44:17.586Z,1037.53
2016-12-12T08:45:17.578Z,1037.45
2016-12-12T08:46:17.566Z,1037.57
2016-12-12T08:47:17.557Z,1037.6
2016-12-12T08:48:17.546Z,1037.65
2016-12-12T08:49:17.536Z,1037.73
2016-12-12T08:50:17.523Z,1037.73
2016-12-12T08:51:17.513Z,1037.77
2016-12-12T08:52:17.502Z,1037.85
2016-12-12T08:53:17.493Z,1037.86
2016-12-12T08:54:17.480Z,1038.24
2016-12-12T08:55:17.472Z,1038.2
2016-12-12T08:56:17.462Z,1038.28
2016-12-12T08:57:17.448Z,1038.43
2016-12-12T08:58:17.439Z,1038.49
2016-12-12T08:59:17.427Z,1038.52
2016-12-12T09:00:17.417Z,1038.72
2016-12-12T09:01:17.405Z,1038.77
2016-12-12T09:02:17.398Z,1038.89
2016-12-12T09:03:17.386Z,1039.12
2016-12-12T09:04:17.375Z,1039.02
2016-12-12T09:05:17.362Z,1039.04
2016-12-12T09:06:17.353Z,1039.06
2016-12-12T09:07:17.341Z,1039.28
2016-12-12T09:08:17.328Z,1039.26
2016-12-12T09:09:17.320Z,1039.21
2016-12-12T09:10:17.307Z,1039.22
2016-12-12T09:11:17.298Z,1039.31
2016-12-12T09:12:17.284Z,1039.28
2016-12-12T09:13:17.274Z,1039.38
2016-12-12T09:14:17.262Z,1039.34
2016-12-12T09:15:17.251Z,1039.49
2016-12-12T09:16:17.241Z,1039.47
2016-12-12T09:17:17.230Z,1039.46
2016-12-12T09:18:17.221Z,1039.45
2016-12-12T09:19:17.206Z,1039.5
2016-12-12T09:20:17.196Z,1039.68
2016-12-12T09:21:17.183Z,1039.73
2016-12-12T09:22:17.173Z,1039.81
2016-12-12T09:23:17.161Z,1039.76
2016-12-12T09:24:17.150Z,1039.79
2016-12-12T09:25:17.136Z,1039.82
2016-12-12T09:26:17.125Z,1039.76
2016-12-12T09:27:17.113Z,1039.88
2016-12-12T09:28:17.104Z,1039.78
2016-12-12T09:29:17.090Z,1039.85
2016-12-12T09:30:17.078Z,1039.9
2016-12-12T09:31:17.069Z,1039.88
2016-12-12T09:32:17.058Z,1039.87
2016-12-12T09:33:17.049Z,1039.94
2016-12-12T09:34:17.032Z,1039.91
2016-12-12T09:35:17.020Z,1039.82
2016-12-12T09:36:17.009Z,1039.84
2016-12-12T09:37:17.000Z,1039.78
2016-12-12T09:38:16.986Z,1039.78
2016-12-12T09:39:16.974Z,1039.74
2016-12-12T09:40:16.964Z,1039.72
2016-12-12T09:41:16.951Z,1039.92
2016-12-12T09:42:16.940Z,1039.83
2016-12-12T09:43:16.929Z,1039.73
2016-12-12T09:44:16.916Z,1039.91
2016-12-12T09:45:16.904Z,1039.8
2016-12-12T09:46:16.893Z,1039.78
2016-12-12T09:47:16.882Z,1039.85
2016-12-12T09:48:16.872Z,1039.86
2016-12-12T09:49:16.860Z,1040.04
2016-12-12T09:50:16.847Z,1039.86
2016-12-12T09:51:16.838Z,1039.84
2016-12-12T09:52:16.824Z,1039.85
2016-12-12T09:53:16.812Z,1039.74
2016-12-12T09:54:16.803Z,1039.81
2016-12-12T09:55:16.789Z,1039.9
2016-12-12T09:56:16.777Z,1039.8
2016-12-12T09:57:16.768Z,1039.75
2016-12-12T09:58:16.756Z,1039.67
2016-12-12T09:59:16.745Z,1039.71
2016-12-12T10:00:16.732Z,1039.69
2016-12-12T10:01:16.720Z,1039.75
2016-12-12T10:02:16.710Z,1039.77
2016-12-12T10:03:16.700Z,1039.79
2016-12-12T10:04:16.686Z,1039.71
2016-12-12T10:05:16.677Z,1039.72
2016-12-12T10:06:16.665Z,1039.69
2016-12-12T10:07:16.654Z,1039.74
2016-12-12T10:08:16.640Z,1039.76
2016-12-12T10:09:16.631Z,1039.78
2016-12-12T10:10:16.619Z,1039.74
2016-12-12T10:11:16.608Z,1039.85
2016-12-12T10:12:16.595Z,1039.76
2016-12-12T10:13:16.586Z,1039.85
2016-12-12T10:14:16.574Z,1039.98
2016-12-12T10:15:16.562Z,1039.9
2016-12-12T10:16:16.552Z,1040.07
2016-12-12T10:17:16.541Z,1040.1
2016-12-12T10:18:16.527Z,1040.15
2016-12-12T10:19:16.517Z,1040.12
2016-12-12T10:20:16.506Z,1040.18
2016-12-12T10:21:16.496Z,1040.27
2016-12-12T10:22:16.482Z,1040.14
2016-12-12T10:23:16.474Z,1040.11
2016-12-12T10:24:16.460Z,1040.18
2016-12-12T10:25:16.450Z,1040.21
2016-12-12T10:26:16.438Z,1040.27
2016-12-12T10:27:16.429Z,1040.22
2016-12-12T10:28:16.418Z,1040.27
2016-12-12T10:29:16.406Z,1040.3
2016-12-12T10:30:16.395Z,1040.29
2016-12-12T10:31:16.382Z,1040.3
2016-12-12T10:32:16.370Z,1040.4
2016-12-12T10:33:16.361Z,1040.32
2016-12-12T10:34:16.348Z,1040.36
2016-12-12T10:35:16.337Z,1040.44
2016-12-12T10:36:16.327Z,1040.47
2016-12-12T10:37:16.314Z,1040.48
2016-12-12T10:38:16.305Z,1040.52
2016-12-12T10:39:16.294Z,1040.53
2016-12-12T10:40:16.279Z,1040.54
2016-12-12T10:41:16.271Z,1040.54
2016-12-12T10:42:16.260Z,1040.56
2016-12-12T10:43:16.248Z,1040.58
2016-12-12T10:44:16.237Z,1040.53
2016-12-12T10:45:16.223Z,1040.56
2016-12-12T10:46:16.214Z,1040.51
2016-12-12T10:47:16.202Z,1040.51
2016-12-12T10:48:16.192Z,1040.5
2016-12-12T10:49:16.181Z,1040.49
2016-12-12T10:50:16.169Z,1040.51
2016-12-12T10:51:16.158Z,1040.5
2016-12-12T10:52:16.147Z,1040.51
2016-12-12T10:53:16.136Z,1040.49
2016-12-12T10:54:16.122Z,1040.52
2016-12-12T10:55:16.113Z,1040.63
2016-12-12T10:56:16.100Z,1040.53
2016-12-12T10:57:16.091Z,1040.62
2016-12-12T10:58:16.077Z,1040.62
2016-12-12T10:59:16.067Z,1040.61
2016-12-12T11:00:16.057Z,1040.7
2016-12-12T11:01:16.044Z,1040.68
2016-12-12T11:02:16.032Z,1040.71
2016-12-12T11:03:16.023Z,1040.79
2016-12-12T11:04:16.014Z,1040.87
2016-12-12T11:05:16.001Z,1041.01
2016-12-12T11:06:15.989Z,1041.17
2016-12-12T11:07:15.979Z,1041.17
2016-12-12T11:08:15.966Z,1041.2
2016-12-12T11:09:15.955Z,1041.28
2016-12-12T11:10:15.944Z,1041.33
2016-12-12T11:11:15.933Z,1041.43
2016-12-12T11:12:15.921Z,1041.43
2016-12-12T11:13:15.910Z,1041.47
2016-12-12T11:14:15.899Z,1041.52
2016-12-12T11:15:15.889Z,1041.6
2016-12-12T11:16:15.874Z,1041.58
2016-12-12T11:17:15.863Z,1041.66
2016-12-12T11:18:15.850Z,1041.65
2016-12-12T11:19:15.839Z,1041.64
2016-12-12T11:20:15.827Z,1041.65
2016-12-12T11:21:15.815Z,1041.81
2016-12-12T11:22:15.804Z,1041.74
2016-12-12T11:23:15.792Z,1041.84
2016-12-12T11:24:15.783Z,1041.87
2016-12-12T11:25:15.771Z,1041.91
2016-12-12T11:26:15.769Z,1041.95
2016-12-12T11:27:15.745Z,1042.02
2016-12-12T11:28:15.734Z,1041.93
2016-12-12T11:29:15.723Z,1042.02
2016-12-12T11:30:15.710Z,1041.95
2016-12-12T11:31:15.699Z,1041.95
2016-12-12T11:32:15.687Z,1042.02
2016-12-12T11:33:15.676Z,1042.06
2016-12-12T11:34:15.663Z,1042
2016-12-12T11:35:15.651Z,1042.09
2016-12-12T11:36:15.639Z,1042.03
2016-12-12T11:37:15.626Z,1042.02
2016-12-12T11:38:15.614Z,1042.04
2016-12-12T11:39:15.602Z,1042.01
2016-12-12T11:40:15.591Z,1041.99
2016-12-12T11:41:15.581Z,1042.01
2016-12-12T11:42:15.564Z,1042.04
2016-12-12T11:43:15.552Z,1042.11
2016-12-12T11:44:15.541Z,1042.06
2016-12-12T11:45:15.529Z,1042.1
2016-12-12T11:46:15.515Z,1042.15
2016-12-12T11:47:15.506Z,1042.12
2016-12-12T11:48:15.493Z,1042.07
2016-12-12T11:49:15.478Z,1042.16
2016-12-12T11:50:15.469Z,1042.08
2016-12-12T11:51:15.455Z,1042.14
2016-12-12T11:52:15.445Z,1042.15
2016-12-12T11:53:15.432Z,1042.19
2016-12-12T11:54:15.418Z,1042.11
2016-12-12T11:55:15.408Z,1042.28
2016-12-12T11:56:15.395Z,1042.22
2016-12-12T11:57:15.383Z,1042.21
2016-12-12T11:58:15.371Z,1042.24
2016-12-12T11:59:15.358Z,1042.24
2016-12-12T12:00:15.345Z,1042.33
2016-12-12T12:01:15.334Z,1042.32
2016-12-12T12:02:15.320Z,1042.35
2016-12-12T12:03:15.308Z,1042.31
2016-12-12T12:04:15.295Z,1042.34
2016-12-12T12:05:15.285Z,1042.37
2016-12-12T12:06:15.272Z,1042.38
2016-12-12T12:07:15.260Z,1042.38